Time;durP1;ratioP1;P1;durP2;ratioP2;P2;SDS_P1;SDS_P2;PMS_P1;PMS_P2;Temp;Humidity;BMP_temperature;BMP_pressure;BME280_temperature;BME280_humidity;BME280_pressure;Samples;Min_cycle;Max_cycle;Signal;HPM_P1;HPM_P2
2021/04/26 00:00:56;;;;;;;0.80;0.70;;;3.30;99.90;;;;;;5055124;28;20736;-60
2021/04/26 00:03:24;;;;;;;0.97;0.83;;;3.30;99.90;;;;;;5054942;28;20229;-59
2021/04/26 00:05:51;;;;;;;1.13;0.80;;;3.30;99.90;;;;;;5055366;28;20202;-60
2021/04/26 00:08:17;;;;;;;1.27;0.73;;;3.40;99.90;;;;;;5055221;28;20617;-60
2021/04/26 00:10:44;;;;;;;4.40;0.77;;;3.40;99.90;;;;;;5072859;28;20233;-60
2021/04/26 00:13:11;;;;;;;0.90;0.80;;;3.30;99.90;;;;;;5075243;28;20200;-59
2021/04/26 00:15:43;;;;;;;1.07;0.80;;;3.30;99.90;;;;;;5074768;28;20286;-60
2021/04/26 00:18:10;;;;;;;1.00;0.80;;;3.30;99.90;;;;;;5075003;28;20203;-59
2021/04/26 00:20:38;;;;;;;2.50;0.97;;;3.30;99.90;;;;;;5075232;28;20228;-59
2021/04/26 00:23:05;;;;;;;1.03;0.73;;;3.30;99.90;;;;;;5074988;28;20580;-59
2021/04/26 00:25:33;;;;;;;1.77;0.70;;;3.40;99.90;;;;;;5074745;28;20724;-60
2021/04/26 00:28:00;;;;;;;0.73;0.70;;;3.30;99.90;;;;;;5074976;28;20596;-60
2021/04/26 00:30:28;;;;;;;1.97;0.60;;;3.30;99.90;;;;;;5075034;28;20300;-59
2021/04/26 00:32:56;;;;;;;2.30;0.87;;;3.20;99.90;;;;;;5074783;28;20242;-60
2021/04/26 00:35:23;;;;;;;1.20;0.90;;;3.20;99.90;;;;;;5074789;28;20204;-60
2021/04/26 00:37:52;;;;;;;1.10;0.70;;;3.20;99.90;;;;;;5074499;28;20201;-60
2021/04/26 00:40:20;;;;;;;2.53;0.70;;;3.20;99.90;;;;;;5074287;28;20771;-60
2021/04/26 00:42:48;;;;;;;1.60;0.70;;;3.10;99.90;;;;;;5074539;28;20230;-59
2021/04/26 00:45:17;;;;;;;0.80;0.80;;;3.10;99.90;;;;;;5074585;28;20266;-59
2021/04/26 00:47:45;;;;;;;1.47;0.97;;;3.00;99.90;;;;;;5074389;28;20268;-59
2021/04/26 00:50:15;;;;;;;1.67;0.80;;;2.90;99.90;;;;;;5074537;28;20302;-60
2021/04/26 00:52:42;;;;;;;1.00;0.90;;;2.90;99.90;;;;;;5074468;28;20209;-59
2021/04/26 00:55:12;;;;;;;1.27;1.00;;;2.90;99.90;;;;;;5074398;28;20231;-60
2021/04/26 00:57:39;;;;;;;2.67;1.00;;;2.80;99.90;;;;;;5074054;28;20226;-60
2021/04/26 01:00:08;;;;;;;1.00;0.90;;;2.70;99.90;;;;;;5073793;28;20304;-60
2021/04/26 01:02:36;;;;;;;2.17;1.00;;;2.70;99.90;;;;;;5074117;28;20701;-60
2021/04/26 01:05:05;;;;;;;1.40;0.87;;;2.60;99.90;;;;;;5073896;28;20227;-60
2021/04/26 01:07:34;;;;;;;1.80;0.73;;;2.50;99.90;;;;;;5073931;28;20234;-58
2021/04/26 01:10:03;;;;;;;0.87;0.70;;;2.50;99.90;;;;;;5062194;28;20245;-59
2021/04/26 01:12:44;;;;;;;1.60;0.87;;;2.50;99.90;;;;;;5053879;28;20584;-59
2021/04/26 01:15:19;;;;;;;1.33;0.70;;;2.40;99.90;;;;;;5052798;28;20835;-60
2021/04/26 01:17:50;;;;;;;1.00;0.90;;;2.30;99.90;;;;;;5053857;28;20209;-59
2021/04/26 01:20:48;;;;;;;1.50;0.80;;;2.30;99.90;;;;;;5055411;28;20187;-59
2021/04/26 01:23:59;;;;;;;1.67;0.80;;;2.20;99.90;;;;;;5055720;28;20191;-59
2021/04/26 01:26:31;;;;;;;1.63;1.13;;;2.20;99.90;;;;;;5054770;28;20217;-59
2021/04/26 01:29:11;;;;;;;1.53;0.97;;;2.30;99.90;;;;;;5054105;28;20186;-59
2021/04/26 01:31:52;;;;;;;1.00;0.87;;;2.20;99.90;;;;;;5054279;28;20276;-59
2021/04/26 01:34:21;;;;;;;1.90;0.83;;;2.10;99.90;;;;;;5053881;28;20275;-60
2021/04/26 01:36:48;;;;;;;1.17;0.80;;;2.10;99.90;;;;;;5053790;28;20286;-59
2021/04/26 01:39:17;;;;;;;3.03;0.90;;;2.10;99.90;;;;;;5053345;28;20204;-60
2021/04/26 01:41:45;;;;;;;1.73;0.80;;;2.20;99.90;;;;;;5053320;28;20722;-55
2021/04/26 01:44:13;;;;;;;0.83;0.83;;;2.20;99.90;;;;;;5053391;28;20323;-54
2021/04/26 01:46:42;;;;;;;1.50;0.93;;;2.20;99.90;;;;;;5053433;28;20207;-55
2021/04/26 01:49:10;;;;;;;1.77;1.00;;;2.20;99.90;;;;;;5052944;28;20654;-55
2021/04/26 01:51:39;;;;;;;0.87;0.80;;;2.20;99.90;;;;;;5053408;28;20201;-51
2021/04/26 01:54:07;;;;;;;1.10;0.80;;;2.20;99.90;;;;;;5053095;28;20198;-51
2021/04/26 01:56:34;;;;;;;3.33;1.10;;;2.20;99.90;;;;;;5053042;28;20646;-52
2021/04/26 01:59:04;;;;;;;1.03;0.80;;;2.20;99.90;;;;;;5053327;28;20288;-54
2021/04/26 02:01:32;;;;;;;1.30;1.10;;;2.10;99.90;;;;;;5052977;28;20207;-54
2021/04/26 02:04:00;;;;;;;1.20;0.90;;;2.10;99.90;;;;;;5052616;28;20708;-55
2021/04/26 02:06:28;;;;;;;1.10;0.93;;;2.00;99.90;;;;;;5053123;28;20206;-53
2021/04/26 02:08:56;;;;;;;0.90;0.80;;;2.00;99.90;;;;;;5054885;28;20315;-52
2021/04/26 02:11:23;;;;;;;1.00;0.80;;;2.00;99.90;;;;;;5072969;28;20203;-53
2021/04/26 02:13:51;;;;;;;3.83;0.90;;;2.00;99.90;;;;;;5072823;28;20262;-49
2021/04/26 02:16:18;;;;;;;1.87;0.90;;;1.90;99.90;;;;;;5073144;28;20530;-51
2021/04/26 02:18:45;;;;;;;2.30;0.80;;;1.90;99.90;;;;;;5072561;28;20200;-55
2021/04/26 02:21:12;;;;;;;1.20;0.90;;;2.00;99.90;;;;;;5072789;28;20204;-54
2021/04/26 02:23:39;;;;;;;1.97;1.30;;;2.00;99.90;;;;;;5072720;28;20200;-54
2021/04/26 02:26:07;;;;;;;1.80;1.23;;;2.00;99.90;;;;;;5072846;28;20234;-54
2021/04/26 02:28:34;;;;;;;1.70;1.20;;;2.00;99.90;;;;;;5072936;28;20200;-52
2021/04/26 02:31:01;;;;;;;1.77;1.20;;;2.00;99.90;;;;;;5073006;28;20282;-55
2021/04/26 02:33:33;;;;;;;1.67;1.10;;;1.90;99.90;;;;;;5072757;28;20331;-53
2021/04/26 02:36:04;;;;;;;2.40;1.40;;;2.00;99.90;;;;;;5072621;28;20197;-54
2021/04/26 02:38:36;;;;;;;1.40;1.00;;;1.90;99.90;;;;;;5072397;28;20288;-55
2021/04/26 02:41:08;;;;;;;0.80;0.80;;;1.80;99.90;;;;;;5072686;28;20184;-54
2021/04/26 02:43:41;;;;;;;1.43;0.80;;;1.60;99.90;;;;;;5072737;28;20212;-53
2021/04/26 02:46:08;;;;;;;2.83;1.00;;;1.60;99.90;;;;;;5072203;28;20196;-51
2021/04/26 02:48:37;;;;;;;1.60;1.10;;;1.50;99.90;;;;;;5072465;28;20198;-54
2021/04/26 02:51:06;;;;;;;2.93;1.23;;;1.40;99.90;;;;;;5072521;28;20208;-52
2021/04/26 02:53:34;;;;;;;2.17;1.90;;;1.30;99.90;;;;;;5072522;28;20243;-52
2021/04/26 02:56:06;;;;;;;2.00;1.80;;;1.40;99.90;;;;;;5072600;28;20205;-53
2021/04/26 02:58:35;;;;;;;2.17;1.80;;;1.50;99.90;;;;;;5072739;28;20198;-52
2021/04/26 03:01:04;;;;;;;2.27;1.43;;;1.60;99.90;;;;;;5072610;28;20201;-55
2021/04/26 03:03:32;;;;;;;1.73;1.63;;;1.70;99.90;;;;;;5072320;28;20302;-53
2021/04/26 03:06:00;;;;;;;2.40;2.20;;;1.70;99.90;;;;;;5072295;28;20207;-52
2021/04/26 03:08:28;;;;;;;3.60;3.30;;;1.70;99.90;;;;;;5072385;28;20304;-55
2021/04/26 03:10:56;;;;;;;3.30;2.77;;;1.60;99.90;;;;;;5053091;28;20202;-55
2021/04/26 03:13:27;;;;;;;4.13;3.07;;;1.50;99.90;;;;;;5052434;28;20300;-55
2021/04/26 03:15:55;;;;;;;7.43;6.63;;;1.60;99.90;;;;;;5051906;28;20312;-55
2021/04/26 03:18:23;;;;;;;9.97;8.97;;;1.60;99.90;;;;;;5052256;28;20285;-54
2021/04/26 03:20:51;;;;;;;10.57;9.57;;;1.50;99.90;;;;;;5055070;28;20299;-54
2021/04/26 03:23:21;;;;;;;9.10;8.20;;;1.50;99.90;;;;;;5056059;28;20212;-53
2021/04/26 03:25:48;;;;;;;7.00;6.30;;;1.40;99.90;;;;;;5056005;28;20292;-53
2021/04/26 03:28:18;;;;;;;6.97;5.47;;;1.40;99.90;;;;;;5055734;28;20767;-56
2021/04/26 03:30:45;;;;;;;7.47;6.20;;;1.40;99.90;;;;;;5055999;28;20204;-54
2021/04/26 03:33:14;;;;;;;7.00;6.30;;;1.20;99.90;;;;;;5055528;28;20671;-54
2021/04/26 03:35:42;;;;;;;6.80;4.77;;;1.10;99.90;;;;;;5055636;28;20197;-55
2021/04/26 03:38:11;;;;;;;6.07;3.00;;;1.00;99.90;;;;;;5055964;28;20231;-52
2021/04/26 03:40:38;;;;;;;2.03;1.70;;;1.00;99.90;;;;;;5055431;28;20292;-54
2021/04/26 03:43:06;;;;;;;3.93;2.50;;;1.20;99.90;;;;;;5055495;28;20236;-56
2021/04/26 03:45:33;;;;;;;4.10;2.87;;;1.30;99.90;;;;;;5055552;28;20219;-54
2021/04/26 03:48:00;;;;;;;2.83;2.40;;;1.30;99.90;;;;;;5055597;28;20736;-54
2021/04/26 03:50:28;;;;;;;4.93;2.27;;;1.30;99.90;;;;;;5055811;28;20296;-55
2021/04/26 03:52:55;;;;;;;2.90;2.00;;;1.30;99.90;;;;;;5055668;28;20208;-52
2021/04/26 03:55:23;;;;;;;3.20;2.30;;;1.30;99.90;;;;;;5055092;28;20201;-52
2021/04/26 03:57:51;;;;;;;2.30;1.87;;;1.40;99.90;;;;;;5055297;28;20509;-53
2021/04/26 04:00:19;;;;;;;3.37;2.93;;;1.50;99.90;;;;;;5055137;28;20296;-54
2021/04/26 04:02:46;;;;;;;6.63;3.20;;;1.40;99.90;;;;;;5055291;28;20230;-54
2021/04/26 04:05:15;;;;;;;5.40;2.97;;;1.40;99.90;;;;;;5055473;28;20227;-54
2021/04/26 04:07:42;;;;;;;3.43;2.97;;;1.30;99.90;;;;;;5055333;28;20283;-52
2021/04/26 04:10:11;;;;;;;3.10;2.80;;;1.20;99.90;;;;;;5067777;28;20653;-55
2021/04/26 04:12:38;;;;;;;3.83;2.50;;;1.30;99.90;;;;;;5075443;28;20201;-53
2021/04/26 04:15:07;;;;;;;3.63;2.60;;;1.40;99.90;;;;;;5074915;28;20314;-53
2021/04/26 04:17:34;;;;;;;3.37;2.43;;;1.50;99.90;;;;;;5074695;28;20212;-53
2021/04/26 04:20:06;;;;;;;3.80;2.40;;;1.60;99.90;;;;;;5075049;28;20586;-52
2021/04/26 04:22:33;;;;;;;2.60;1.97;;;1.70;99.90;;;;;;5074756;28;20211;-56
2021/04/26 04:25:01;;;;;;;2.77;2.53;;;1.70;99.90;;;;;;5074480;28;20282;-56
2021/04/26 04:27:28;;;;;;;3.20;2.03;;;1.80;99.90;;;;;;5074715;28;20212;-54
2021/04/26 04:29:55;;;;;;;4.13;2.50;;;1.80;99.90;;;;;;5074964;28;20206;-53
2021/04/26 04:32:22;;;;;;;4.27;2.30;;;1.80;99.90;;;;;;5073874;28;20201;-54
2021/04/26 04:34:48;;;;;;;3.40;2.67;;;1.80;99.90;;;;;;5074781;28;20205;-56
2021/04/26 04:37:15;;;;;;;3.37;2.77;;;1.80;99.90;;;;;;5074669;28;20310;-52
2021/04/26 04:39:42;;;;;;;3.23;2.40;;;1.80;99.90;;;;;;5074598;28;20223;-54
2021/04/26 04:42:10;;;;;;;5.93;3.27;;;1.90;99.90;;;;;;5074390;28;20200;-54
2021/04/26 04:44:37;;;;;;;4.90;2.97;;;2.00;99.90;;;;;;5074512;28;20289;-55
2021/04/26 04:47:04;;;;;;;3.50;2.20;;;2.10;99.90;;;;;;5074578;28;20212;-54
2021/04/26 04:49:32;;;;;;;4.20;2.37;;;2.10;99.90;;;;;;5074441;28;20215;-53
2021/04/26 04:51:59;;;;;;;3.37;1.97;;;2.30;99.90;;;;;;5074364;28;20289;-55
2021/04/26 04:54:26;;;;;;;3.57;2.50;;;2.40;99.90;;;;;;5074141;28;20199;-54
2021/04/26 04:56:53;;;;;;;2.77;2.00;;;2.50;99.90;;;;;;5074336;28;20203;-55
2021/04/26 04:59:21;;;;;;;3.50;2.33;;;2.70;99.90;;;;;;5074112;28;20672;-53
2021/04/26 05:01:49;;;;;;;3.80;3.00;;;2.90;99.90;;;;;;5073719;28;20661;-53
2021/04/26 05:04:16;;;;;;;4.07;2.90;;;3.10;99.90;;;;;;5073761;28;20255;-55
2021/04/26 05:06:43;;;;;;;4.00;3.60;;;3.30;99.90;;;;;;5073809;28;20208;-55
2021/04/26 05:09:09;;;;;;;3.70;2.43;;;3.60;99.90;;;;;;5069201;28;20204;-56
2021/04/26 05:11:37;;;;;;;4.00;2.43;;;3.80;99.90;;;;;;5053967;28;20197;-53
2021/04/26 05:14:04;;;;;;;3.47;2.67;;;4.10;99.90;;;;;;5053615;28;20239;-53
2021/04/26 05:16:32;;;;;;;3.30;2.13;;;4.40;99.90;;;;;;5053948;28;20274;-56
2021/04/26 05:19:00;;;;;;;5.17;2.60;;;4.60;99.90;;;;;;5053465;28;20292;-53
2021/04/26 05:21:27;;;;;;;5.40;3.77;;;4.80;99.90;;;;;;5053773;28;20197;-53
2021/04/26 05:23:55;;;;;;;4.37;3.80;;;4.90;99.90;;;;;;5053571;28;20296;-55
2021/04/26 05:26:25;;;;;;;7.13;3.07;;;5.00;99.90;;;;;;5053715;28;20260;-54
2021/04/26 05:28:52;;;;;;;4.63;2.60;;;5.20;99.90;;;;;;5053251;28;20238;-55
2021/04/26 05:31:19;;;;;;;5.53;2.73;;;5.30;99.90;;;;;;5055024;28;20295;-55
2021/04/26 05:33:48;;;;;;;3.60;2.53;;;5.50;99.90;;;;;;5058662;28;20227;-54
2021/04/26 05:36:15;;;;;;;4.47;2.00;;;5.80;99.90;;;;;;5057388;28;20214;-50
2021/04/26 05:38:47;;;;;;;2.10;1.30;;;5.90;99.90;;;;;;5053412;28;20227;-51
2021/04/26 05:41:14;;;;;;;2.23;1.40;;;5.90;99.90;;;;;;5053478;28;20302;-55
2021/04/26 05:43:41;;;;;;;3.47;1.50;;;6.00;99.90;;;;;;5052203;28;20216;-54
2021/04/26 05:46:08;;;;;;;2.07;1.47;;;6.20;99.90;;;;;;5053172;28;20219;-52
2021/04/26 05:48:35;;;;;;;2.13;1.80;;;6.50;99.90;;;;;;5052972;28;20199;-53
2021/04/26 05:51:03;;;;;;;4.97;1.60;;;6.60;99.90;;;;;;5053188;28;20205;-52
2021/04/26 05:53:29;;;;;;;2.13;1.30;;;6.60;99.90;;;;;;5052831;28;20290;-55
2021/04/26 05:56:01;;;;;;;1.73;1.50;;;6.40;99.90;;;;;;5053061;28;20188;-54
2021/04/26 05:58:28;;;;;;;3.30;1.30;;;6.30;99.90;;;;;;5053099;28;20324;-55
2021/04/26 06:00:55;;;;;;;1.83;1.10;;;6.40;99.90;;;;;;5052864;28;20201;-51
2021/04/26 06:03:22;;;;;;;2.33;1.20;;;6.40;99.90;;;;;;5052836;28;20235;-54
2021/04/26 06:05:49;;;;;;;1.10;1.00;;;6.40;99.90;;;;;;5052509;28;20234;-56
2021/04/26 06:08:18;;;;;;;2.73;1.10;;;6.50;99.90;;;;;;5053047;28;20305;-56
2021/04/26 06:10:45;;;;;;;1.90;1.10;;;6.60;99.90;;;;;;5070590;28;20227;-53
2021/04/26 06:13:12;;;;;;;1.50;1.10;;;6.70;99.90;;;;;;5073066;28;20282;-54
2021/04/26 06:15:39;;;;;;;4.23;1.40;;;6.70;99.90;;;;;;5071593;28;20305;-58
2021/04/26 06:18:08;;;;;;;2.33;1.03;;;6.70;99.90;;;;;;5069535;28;20207;-54
2021/04/26 06:20:35;;;;;;;2.53;1.10;;;6.80;99.90;;;;;;5069900;28;20267;-55
2021/04/26 06:23:02;;;;;;;1.50;1.10;;;6.90;99.90;;;;;;5060857;28;20597;-50
2021/04/26 06:25:30;;;;;;;2.37;1.10;;;6.80;99.90;;;;;;5052934;28;20830;-58
2021/04/26 06:27:57;;;;;;;1.80;1.10;;;6.80;99.90;;;;;;5049213;28;20208;-55
2021/04/26 06:30:24;;;;;;;3.03;0.93;;;6.70;99.90;;;;;;5049351;28;20285;-57
2021/04/26 06:32:51;;;;;;;2.40;1.40;;;6.80;99.90;;;;;;5049438;28;20244;-59
2021/04/26 06:35:19;;;;;;;2.10;0.90;;;6.90;99.90;;;;;;5060329;28;20211;-55
2021/04/26 06:37:46;;;;;;;2.80;1.10;;;7.00;99.90;;;;;;5065914;28;20289;-53
2021/04/26 06:40:14;;;;;;;3.03;0.90;;;7.00;99.90;;;;;;5061451;28;20207;-52
2021/04/26 06:42:43;;;;;;;3.30;0.90;;;7.10;99.90;;;;;;5069014;28;20298;-50
2021/04/26 06:45:11;;;;;;;0.87;0.70;;;7.20;99.90;;;;;;5059144;28;20246;-53
2021/04/26 06:47:38;;;;;;;1.13;0.70;;;7.20;99.90;;;;;;5048831;28;20300;-55
2021/04/26 06:50:06;;;;;;;2.03;0.70;;;7.00;99.90;;;;;;5048780;28;20216;-53
2021/04/26 06:52:33;;;;;;;1.70;0.83;;;7.00;99.90;;;;;;5049979;28;20204;-52
2021/04/26 06:55:00;;;;;;;2.47;0.80;;;7.00;99.90;;;;;;5070355;28;20208;-52
2021/04/26 06:57:27;;;;;;;3.97;0.73;;;7.00;99.90;;;;;;5073656;28;20245;-53
2021/04/26 06:59:54;;;;;;;4.53;0.90;;;7.10;99.90;;;;;;5073161;28;20232;-52
2021/04/26 07:02:21;;;;;;;1.73;0.90;;;7.00;99.90;;;;;;5073212;28;20286;-56
2021/04/26 07:04:48;;;;;;;4.00;1.47;;;6.90;99.90;;;;;;5073221;28;20219;-59
2021/04/26 07:07:15;;;;;;;2.13;0.97;;;7.00;99.90;;;;;;5073318;28;20299;-58
2021/04/26 07:09:42;;;;;;;1.50;0.80;;;7.00;99.90;;;;;;5071915;28;20311;-59
2021/04/26 07:12:10;;;;;;;3.90;0.70;;;7.00;99.90;;;;;;5053282;28;20247;-58
2021/04/26 07:14:36;;;;;;;1.47;0.80;;;7.10;99.90;;;;;;5053234;28;20416;-59
2021/04/26 07:17:04;;;;;;;4.23;0.93;;;7.20;99.90;;;;;;5053336;28;20205;-56
2021/04/26 07:19:31;;;;;;;1.30;0.90;;;7.40;99.90;;;;;;5053188;28;20241;-59
2021/04/26 07:21:58;;;;;;;3.73;1.00;;;7.50;99.90;;;;;;5053203;28;20626;-58
2021/04/26 07:24:25;;;;;;;3.03;1.10;;;7.60;99.90;;;;;;5052019;28;20300;-58
2021/04/26 07:26:52;;;;;;;2.03;0.83;;;7.50;99.90;;;;;;5052949;28;20302;-59
2021/04/26 07:29:19;;;;;;;0.90;0.80;;;7.50;99.90;;;;;;5052909;28;20237;-59
2021/04/26 07:31:46;;;;;;;1.00;0.77;;;7.50;99.90;;;;;;5052804;28;20719;-56
2021/04/26 07:34:14;;;;;;;1.57;0.90;;;7.40;99.90;;;;;;5052327;28;20685;-59
2021/04/26 07:36:41;;;;;;;3.07;1.10;;;7.50;99.90;;;;;;5052605;28;20204;-57
2021/04/26 07:39:09;;;;;;;2.20;1.00;;;7.60;99.90;;;;;;5052597;28;20254;-57
2021/04/26 07:41:36;;;;;;;2.03;0.80;;;7.50;99.90;;;;;;5052602;28;20209;-56
2021/04/26 07:44:03;;;;;;;3.87;2.30;;;7.50;99.90;;;;;;5055513;28;20202;-58
2021/04/26 07:46:31;;;;;;;1.80;0.90;;;7.60;99.90;;;;;;5072536;28;20220;-59
2021/04/26 07:48:58;;;;;;;2.80;0.87;;;7.60;99.90;;;;;;5072143;28;20257;-60
2021/04/26 07:51:26;;;;;;;1.53;0.90;;;7.60;99.90;;;;;;5072540;28;20230;-59
2021/04/26 07:53:52;;;;;;;1.47;0.87;;;7.60;99.90;;;;;;5072286;28;20300;-60
2021/04/26 07:56:20;;;;;;;1.40;1.10;;;7.80;99.90;;;;;;5072385;28;20235;-61
2021/04/26 07:58:47;;;;;;;1.30;1.00;;;7.80;99.90;;;;;;5072166;28;20671;-60
2021/04/26 08:01:14;;;;;;;1.77;1.03;;;7.60;99.90;;;;;;5072285;28;20296;-61
2021/04/26 08:03:41;;;;;;;1.50;0.87;;;7.60;99.90;;;;;;5071981;28;20204;-59
2021/04/26 08:06:08;;;;;;;1.30;1.17;;;7.80;99.90;;;;;;5071040;28;20748;-60
2021/04/26 08:08:36;;;;;;;2.77;1.20;;;7.80;99.90;;;;;;5071573;28;20247;-59
2021/04/26 08:11:03;;;;;;;4.07;2.03;;;7.80;99.90;;;;;;5071806;28;20250;-60
2021/04/26 08:13:31;;;;;;;2.00;1.30;;;7.90;99.90;;;;;;5071801;28;20294;-56
2021/04/26 08:15:59;;;;;;;3.17;1.27;;;8.00;99.90;;;;;;5072022;28;20200;-56
2021/04/26 08:18:26;;;;;;;2.77;1.50;;;8.00;99.90;;;;;;5072011;28;20228;-60
2021/04/26 08:20:53;;;;;;;3.67;1.47;;;7.90;99.90;;;;;;5071955;28;20643;-61
2021/04/26 08:23:20;;;;;;;5.50;1.40;;;8.00;99.90;;;;;;5071903;28;20258;-58
2021/04/26 08:25:47;;;;;;;3.53;1.23;;;7.90;99.90;;;;;;5071771;28;20278;-58
2021/04/26 08:28:16;;;;;;;3.37;1.37;;;7.90;99.90;;;;;;5072147;28;20294;-58
2021/04/26 08:30:47;;;;;;;1.67;1.20;;;8.00;99.90;;;;;;5071743;28;20201;-52
2021/04/26 08:33:13;;;;;;;2.70;1.20;;;8.10;99.90;;;;;;5071629;28;20295;-52
2021/04/26 08:35:40;;;;;;;2.83;1.47;;;8.20;99.90;;;;;;5071820;28;20938;-54
2021/04/26 08:38:08;;;;;;;1.50;1.00;;;8.20;99.90;;;;;;5071726;28;20203;-56
2021/04/26 08:40:35;;;;;;;3.00;1.10;;;8.30;99.90;;;;;;5071391;28;20205;-55
2021/04/26 08:43:04;;;;;;;2.47;1.33;;;8.30;99.90;;;;;;5071570;28;20208;-55
2021/04/26 08:45:31;;;;;;;1.50;1.20;;;8.20;99.90;;;;;;5056110;28;20295;-56
2021/04/26 08:48:00;;;;;;;1.43;0.90;;;8.30;99.90;;;;;;5051064;28;20216;-56
2021/04/26 08:50:31;;;;;;;3.57;1.30;;;8.30;99.90;;;;;;5051389;28;20235;-54
2021/04/26 08:52:57;;;;;;;2.00;0.90;;;8.40;99.90;;;;;;5051062;28;20205;-55
2021/04/26 08:55:24;;;;;;;1.23;0.90;;;8.40;99.90;;;;;;5051321;28;20292;-59
2021/04/26 08:57:52;;;;;;;4.83;1.20;;;8.50;99.90;;;;;;5051279;28;20209;-60
2021/04/26 09:00:21;;;;;;;3.13;1.00;;;8.50;99.90;;;;;;5050942;28;20237;-58
2021/04/26 09:02:53;;;;;;;3.10;1.00;;;8.50;99.90;;;;;;5050827;28;20209;-59
2021/04/26 09:05:26;;;;;;;1.97;0.83;;;8.50;99.90;;;;;;5050862;28;20296;-60
2021/04/26 09:07:55;;;;;;;1.73;0.80;;;8.60;99.90;;;;;;5050990;28;20609;-59
2021/04/26 09:10:53;;;;;;;1.80;0.80;;;8.50;98.80;;;;;;5050521;28;20287;-58
2021/04/26 09:13:24;;;;;;;1.30;0.83;;;8.60;99.20;;;;;;5008597;28;20191;-56
2021/04/26 09:15:54;;;;;;;0.87;0.80;;;8.60;99.70;;;;;;5042388;28;20700;-54
2021/04/26 09:18:21;;;;;;;2.97;1.00;;;8.70;99.90;;;;;;5050282;28;20292;-55
2021/04/26 09:20:48;;;;;;;2.60;1.00;;;8.70;99.90;;;;;;5050479;28;20231;-60
2021/04/26 09:23:16;;;;;;;0.87;0.80;;;8.50;99.80;;;;;;5050480;28;20228;-58
2021/04/26 09:25:43;;;;;;;2.97;1.73;;;8.60;99.90;;;;;;5050177;28;20895;-59
2021/04/26 09:28:12;;;;;;;0.90;0.90;;;8.50;99.90;;;;;;5050466;28;20201;-56
2021/04/26 09:30:50;;;;;;;1.70;1.20;;;8.60;99.90;;;;;;5050149;28;20776;-56
2021/04/26 09:33:28;;;;;;;1.80;0.90;;;8.70;99.90;;;;;;5049949;28;20186;-58
2021/04/26 09:36:13;;;;;;;2.50;0.93;;;8.70;99.90;;;;;;5050622;28;20290;-55
2021/04/26 09:38:43;;;;;;;1.30;1.00;;;8.80;99.90;;;;;;5050499;28;20553;-54
2021/04/26 09:41:29;;;;;;;3.20;0.90;;;9.00;99.90;;;;;;5049854;28;20657;-51
2021/04/26 09:44:11;;;;;;;2.63;0.93;;;9.10;99.00;;;;;;5059567;28;20300;-54
2021/04/26 09:46:40;;;;;;;1.37;0.90;;;9.20;99.90;;;;;;5079831;28;20224;-58
2021/04/26 09:49:11;;;;;;;1.60;0.97;;;9.20;99.60;;;;;;5072307;28;20220;-59
2021/04/26 09:51:38;;;;;;;2.60;1.20;;;9.10;98.60;;;;;;5070267;28;20200;-57
2021/04/26 09:54:07;;;;;;;1.20;0.77;;;9.20;98.40;;;;;;5069930;28;20718;-58
2021/04/26 09:56:40;;;;;;;2.77;1.00;;;9.50;98.30;;;;;;5070229;28;20200;-54
2021/04/26 09:59:10;;;;;;;2.10;1.10;;;9.90;98.70;;;;;;5069969;28;20253;-55
2021/04/26 10:01:38;;;;;;;3.03;1.00;;;10.30;98.40;;;;;;5069482;28;20652;-56
2021/04/26 10:04:10;;;;;;;2.33;1.00;;;10.50;97.60;;;;;;5069195;28;20204;-55
2021/04/26 10:06:40;;;;;;;1.43;0.90;;;10.60;96.00;;;;;;5069114;28;20691;-58
2021/04/26 10:09:09;;;;;;;1.33;0.80;;;10.60;96.20;;;;;;5069642;28;20258;-56
2021/04/26 10:11:38;;;;;;;1.40;1.00;;;10.80;96.90;;;;;;5069523;28;20508;-57
2021/04/26 10:14:07;;;;;;;3.90;1.20;;;11.00;96.30;;;;;;5069520;28;20236;-57
2021/04/26 10:16:41;;;;;;;1.33;1.10;;;10.70;94.30;;;;;;5049901;28;20193;-55
2021/04/26 10:19:14;;;;;;;3.50;1.33;;;10.30;95.30;;;;;;5049337;28;20189;-59
2021/04/26 10:21:53;;;;;;;2.27;1.20;;;10.30;94.50;;;;;;5049313;28;20243;-56
2021/04/26 10:24:23;;;;;;;1.03;0.90;;;10.40;95.00;;;;;;5048990;28;20540;-57
2021/04/26 10:26:52;;;;;;;2.20;1.00;;;10.60;94.50;;;;;;5049496;28;20232;-56
2021/04/26 10:29:26;;;;;;;2.47;1.13;;;10.80;94.30;;;;;;5049067;28;20205;-55
2021/04/26 10:32:14;;;;;;;1.53;1.20;;;10.90;94.80;;;;;;5049715;28;20192;-55
2021/04/26 10:35:07;;;;;;;3.83;1.20;;;11.20;94.40;;;;;;5049319;28;20193;-58
2021/04/26 10:37:36;;;;;;;1.67;1.37;;;11.40;94.10;;;;;;5049007;28;20190;-56
2021/04/26 10:40:13;;;;;;;1.40;1.30;;;11.40;95.00;;;;;;5049436;28;20532;-57
2021/04/26 10:42:41;;;;;;;2.33;1.13;;;11.20;94.10;;;;;;5049276;28;20626;-55
2021/04/26 10:45:34;;;;;;;1.77;1.40;;;10.70;95.00;;;;;;5060739;28;20204;-58
2021/04/26 10:48:10;;;;;;;1.30;1.20;;;10.50;95.30;;;;;;5054733;28;20680;-56
2021/04/26 10:50:41;;;;;;;1.10;1.00;;;10.20;95.60;;;;;;5069131;28;20196;-56
2021/04/26 10:53:11;;;;;;;2.73;1.10;;;10.40;95.60;;;;;;5069426;28;20180;-55
2021/04/26 10:55:58;;;;;;;1.27;1.03;;;10.50;94.90;;;;;;5068831;28;20212;-57
2021/04/26 10:58:39;;;;;;;2.53;1.10;;;10.80;95.00;;;;;;5069240;28;20197;-56
2021/04/26 11:01:09;;;;;;;1.50;1.10;;;11.10;93.90;;;;;;5068670;28;20189;-55
2021/04/26 11:03:40;;;;;;;3.20;1.10;;;11.20;93.70;;;;;;5068793;28;20211;-56
2021/04/26 11:06:28;;;;;;;1.87;1.30;;;11.10;93.80;;;;;;5068937;28;20217;-57
2021/04/26 11:09:08;;;;;;;2.73;1.17;;;10.80;93.70;;;;;;5069331;28;20272;-59
2021/04/26 11:12:00;;;;;;;3.23;0.97;;;11.00;94.10;;;;;;5069078;28;20280;-59
2021/04/26 11:14:29;;;;;;;3.20;1.07;;;10.90;93.20;;;;;;5068937;28;20236;-59
2021/04/26 11:17:08;;;;;;;1.70;1.20;;;10.90;92.80;;;;;;5069268;28;20253;-58
2021/04/26 11:20:11;;;;;;;1.63;1.23;;;10.90;92.10;;;;;;5069037;28;20621;-59
2021/04/26 11:22:38;;;;;;;0.83;0.83;;;11.00;91.90;;;;;;5069153;28;20195;-61
2021/04/26 11:25:08;;;;;;;1.47;1.10;;;10.80;92.10;;;;;;5068695;28;20665;-59
2021/04/26 11:27:40;;;;;;;1.90;1.20;;;10.90;92.80;;;;;;5069151;28;20205;-59
2021/04/26 11:30:22;;;;;;;2.87;1.10;;;11.30;92.80;;;;;;5068879;28;20225;-59
2021/04/26 11:33:13;;;;;;;1.10;1.00;;;11.50;91.90;;;;;;5069006;28;20224;-59
2021/04/26 11:36:20;;;;;;;3.10;1.07;;;11.70;91.10;;;;;;5069029;28;20185;-59
2021/04/26 11:38:47;;;;;;;3.93;1.30;;;11.90;91.40;;;;;;5069110;28;20577;-59
2021/04/26 11:41:16;;;;;;;1.20;1.10;;;11.50;91.30;;;;;;5069582;28;20299;-57
2021/04/26 11:43:51;;;;;;;2.07;1.30;;;11.20;91.40;;;;;;5072035;28;20296;-55
2021/04/26 11:46:27;;;;;;;3.73;1.47;;;11.00;92.10;;;;;;5071796;28;20289;-58
2021/04/26 11:49:17;;;;;;;2.10;1.17;;;11.10;92.20;;;;;;5071809;28;20180;-55
2021/04/26 11:51:46;;;;;;;1.60;1.00;;;11.60;91.60;;;;;;5072364;28;20290;-58
2021/04/26 11:54:15;;;;;;;1.83;1.20;;;11.90;91.80;;;;;;5072218;28;20254;-56
2021/04/26 11:57:03;;;;;;;1.83;1.03;;;12.40;91.30;;;;;;5071930;28;20247;-55
2021/04/26 11:59:30;;;;;;;3.30;1.10;;;12.60;90.80;;;;;;5072039;28;20696;-56
2021/04/26 12:01:57;;;;;;;3.30;1.30;;;12.50;90.00;;;;;;5072037;28;20200;-58
2021/04/26 12:04:37;;;;;;;1.83;1.00;;;12.40;88.40;;;;;;5072216;28;20214;-55
2021/04/26 12:07:05;;;;;;;1.73;1.20;;;12.20;89.30;;;;;;5071941;28;20204;-56
2021/04/26 12:09:32;;;;;;;1.33;0.93;;;12.00;89.40;;;;;;5071885;28;20208;-55
2021/04/26 12:12:01;;;;;;;4.77;1.20;;;12.10;90.20;;;;;;5072046;28;20299;-56
2021/04/26 12:14:28;;;;;;;2.03;1.10;;;12.20;90.00;;;;;;5071457;28;20263;-55
2021/04/26 12:17:14;;;;;;;1.83;1.07;;;12.20;89.40;;;;;;5072099;28;20308;-57
2021/04/26 12:19:41;;;;;;;1.70;1.60;;;12.00;89.60;;;;;;5072066;28;20188;-54
2021/04/26 12:22:08;;;;;;;2.17;1.00;;;11.80;90.10;;;;;;5071658;28;20201;-53
2021/04/26 12:24:35;;;;;;;1.77;1.10;;;11.80;89.20;;;;;;5071218;28;20255;-56
2021/04/26 12:27:12;;;;;;;1.37;1.10;;;11.50;88.60;;;;;;5071874;28;20220;-56
2021/04/26 12:29:39;;;;;;;1.60;1.20;;;10.90;88.60;;;;;;5071845;28;20220;-53
2021/04/26 12:32:14;;;;;;;1.60;1.10;;;10.30;90.40;;;;;;5071607;28;20197;-58
2021/04/26 12:34:55;;;;;;;1.63;1.10;;;10.00;90.70;;;;;;5071636;28;20666;-57
2021/04/26 12:37:25;;;;;;;1.10;1.00;;;10.20;90.50;;;;;;5071690;28;20268;-59
2021/04/26 12:39:53;;;;;;;1.90;1.27;;;10.40;90.90;;;;;;5071461;28;20242;-57
2021/04/26 12:42:22;;;;;;;2.00;1.40;;;10.60;91.20;;;;;;5071079;28;20624;-59
2021/04/26 12:44:49;;;;;;;2.47;1.10;;;11.00;91.40;;;;;;5071396;28;20224;-59
2021/04/26 12:47:22;;;;;;;1.30;1.00;;;11.60;90.90;;;;;;5071069;28;20212;-58
2021/04/26 12:50:09;;;;;;;1.87;1.13;;;12.00;89.30;;;;;;5071456;28;20575;-56
2021/04/26 12:52:36;;;;;;;2.57;1.20;;;12.20;89.50;;;;;;5070510;28;20728;-58
2021/04/26 12:55:07;;;;;;;1.17;1.00;;;12.50;89.10;;;;;;5071129;28;20211;-58
2021/04/26 12:57:35;;;;;;;1.60;0.90;;;12.60;88.40;;;;;;5071338;28;20268;-57
2021/04/26 13:00:04;;;;;;;3.63;1.30;;;12.50;88.10;;;;;;5071312;28;20205;-55
2021/04/26 13:02:31;;;;;;;1.70;1.10;;;12.20;87.30;;;;;;5070474;28;20293;-54
2021/04/26 13:04:59;;;;;;;1.30;1.10;;;11.90;87.80;;;;;;5070818;28;20698;-60
2021/04/26 13:07:26;;;;;;;1.27;0.90;;;11.90;87.60;;;;;;5070495;28;20231;-55
2021/04/26 13:10:07;;;;;;;2.13;1.10;;;11.70;87.90;;;;;;5070673;28;20250;-52